Waterford Township, Michigan
Current Conditions -  °F | °C
As of 3:53 PM on Saturday 22 Nov 2014 (Local Time) from KPTK Reporting Station
Haze Haze  
Wind Chill: 33°   Ceiling: 600
Heat Index: 40°   Visibility: 4mi
Dew Point: 37°   Wind: 12mph
Humidity: 89%   Direction: 210°SSW
Pressure: 29.93"   Gusts: NA
Location:  42.6485°N, 83.3542°W
Report Text: KPTK 222053Z 21010KT 4SM BR OVC006 04/03 A2993 RMK AO2 SLP145 T00440028 55016
Loading
Personal Weather Stations






























Interactive Weather Map New forecast layout! Learn more

10-Day Weather Forecast

Advertisements
Track Severe Weather on mobile